X  Close Metar Aviation Weather Data     EDTY Adolf Würth Airport
Temperature
14°C Temperature
12°C Dewpoint
88% Humidity



Wind
13 KM/H
8 MPH
4 M/S
7 KTS



220°
SW
Current Conditions

Mostly Scattered Clouds Mostly Scattered Clouds
Pressure 1008.81 (hPa) - 29.79 (inHg)
Visibility 6 (mile) - 9.7 (km)
Airport
Airport-code EDTY

Location: Adolf Würth Airport
Distance: 59 (km)

Metar:
EDTY 150720Z 22007KT 190V250 9999 SCT046 14/12 Q1009

Time: 15-06-2024 09:20 CEST